Taitung Airport
RCFN : now visible

Airfield :











YOU CAN JOIN US ON...

 
LOGIN :

Register | Disclaimer

   EN    FR    IT 

 









Legend :    VFR   Marginal VFR   IFR   Intensive IFR   Very Intensive IFR
Visi :
Ceiling :
>= 8 km
>= 3000ft
5 to 8 km
1000 to 3000 ft
1500m to 5 km
500 to 1000 ft
800 to 1500m
200 to 500 ft
< 800m
< 200 ft
Symbols :   Thunderstorms  Fog  Heavy snow  Heavy precipitations  Wind > 20 kt






- Airport Elevation : 143 ft
- IATA code : TTT


RCFN - Taitung

CURRENT METAR :
  • 200030Z VRB01KT 9999 FEW012 SCT020 BKN030 27/21 Q1011 NOSIG RMK A2986

EXPIRED METARs :
  • 200000Z VRB02KT 9999 FEW012 SCT020 BKN030 26/20 Q1011 NOSIG RMK A2986
  • 192330Z 31005KT 280V030 9999 FEW012 SCT020 BKN030 25/19 Q1011 NOSIG RMK A2986
  • 192300Z 33005KT 280V030 9999 FEW012 BKN020 BKN030 24/18 Q1010 NOSIG RMK A2985
  • 192230Z 31006KT 9999 FEW012 BKN020 BKN030 23/18 Q1010 NOSIG RMK A2984
  • 192200Z 34003KT 290V040 9999 FEW012 BKN020 BKN030 22/18 Q1010 NOSIG RMK A2984

TAF TAF RCFN
Valid from the 20 at 00:00 until the 21 at 00:00 UTC


192300Z 2000/2024 18005KT 9999 FEW015 BKN032
TEMPO 2000/2003 30005KT FEW010 BKN020
TEMPO 2004/2010 15010KT
TEMPO 2012/2016 30005KT
RCAA FIR / Asia



MET'MAP, your aeronautical weather chart ! - Copyright ORBIFLY December 2007 - Disclaimer

ORBIFLY MET'MAP TEAM :

Programming & Development : Alexandra Zaïnal
Original concept : Baudouin d'Aumeries
Technical & hardware support : Manuel Goepfert
Assistance : Marc-Olivier Méhu




SOURCES & CREDITS :

   NOAA       Earth
Advisory